sensor_id;sensor_type;location;lat;lon;timestamp;P1;durP1;ratioP1;P2;durP2;ratioP2
60211;SDS011;46079;48.686;15.598;2023-02-28T00:00:25;6.53;;;2.00;;
60211;SDS011;46079;48.686;15.598;2023-02-28T00:02:51;6.88;;;1.80;;
60211;SDS011;46079;48.686;15.598;2023-02-28T00:05:18;6.53;;;1.90;;
60211;SDS011;46079;48.686;15.598;2023-02-28T00:07:45;6.47;;;2.05;;
60211;SDS011;46079;48.686;15.598;2023-02-28T00:10:12;7.40;;;2.20;;
60211;SDS011;46079;48.686;15.598;2023-02-28T00:12:39;7.60;;;2.03;;
60211;SDS011;46079;48.686;15.598;2023-02-28T00:15:05;7.25;;;1.95;;
60211;SDS011;46079;48.686;15.598;2023-02-28T00:17:32;7.45;;;2.28;;
60211;SDS011;46079;48.686;15.598;2023-02-28T00:19:57;6.45;;;1.98;;
60211;SDS011;46079;48.686;15.598;2023-02-28T00:22:35;6.80;;;1.90;;
60211;SDS011;46079;48.686;15.598;2023-02-28T00:25:02;6.43;;;1.92;;
60211;SDS011;46079;48.686;15.598;2023-02-28T00:27:28;7.55;;;2.15;;
60211;SDS011;46079;48.686;15.598;2023-02-28T00:29:54;6.47;;;1.90;;
60211;SDS011;46079;48.686;15.598;2023-02-28T00:32:19;6.68;;;2.00;;
60211;SDS011;46079;48.686;15.598;2023-02-28T00:34:45;7.45;;;2.10;;
60211;SDS011;46079;48.686;15.598;2023-02-28T00:37:11;7.03;;;2.25;;
60211;SDS011;46079;48.686;15.598;2023-02-28T00:39:39;6.88;;;1.90;;
60211;SDS011;46079;48.686;15.598;2023-02-28T00:42:06;6.95;;;2.17;;
60211;SDS011;46079;48.686;15.598;2023-02-28T00:44:32;7.35;;;2.10;;
60211;SDS011;46079;48.686;15.598;2023-02-28T00:46:58;6.43;;;2.15;;
60211;SDS011;46079;48.686;15.598;2023-02-28T00:49:25;6.65;;;2.13;;
60211;SDS011;46079;48.686;15.598;2023-02-28T00:51:51;7.38;;;2.20;;
60211;SDS011;46079;48.686;15.598;2023-02-28T00:54:18;6.30;;;1.90;;
60211;SDS011;46079;48.686;15.598;2023-02-28T00:56:43;7.20;;;2.20;;
60211;SDS011;46079;48.686;15.598;2023-02-28T00:59:11;6.50;;;1.85;;
60211;SDS011;46079;48.686;15.598;2023-02-28T01:01:36;8.18;;;2.25;;
60211;SDS011;46079;48.686;15.598;2023-02-28T01:04:02;6.70;;;2.00;;
60211;SDS011;46079;48.686;15.598;2023-02-28T01:06:28;13.77;;;2.30;;
60211;SDS011;46079;48.686;15.598;2023-02-28T01:08:53;7.63;;;2.30;;
60211;SDS011;46079;48.686;15.598;2023-02-28T01:11:28;6.88;;;2.15;;
60211;SDS011;46079;48.686;15.598;2023-02-28T01:13:54;8.05;;;2.20;;
60211;SDS011;46079;48.686;15.598;2023-02-28T01:16:19;7.05;;;2.10;;
60211;SDS011;46079;48.686;15.598;2023-02-28T01:18:45;7.15;;;2.10;;
60211;SDS011;46079;48.686;15.598;2023-02-28T01:21:11;6.75;;;2.22;;
60211;SDS011;46079;48.686;15.598;2023-02-28T01:23:39;7.07;;;1.90;;
60211;SDS011;46079;48.686;15.598;2023-02-28T01:26:06;7.60;;;2.25;;
60211;SDS011;46079;48.686;15.598;2023-02-28T01:28:34;5.43;;;1.77;;
60211;SDS011;46079;48.686;15.598;2023-02-28T01:30:59;8.48;;;2.20;;
60211;SDS011;46079;48.686;15.598;2023-02-28T01:33:25;6.97;;;2.00;;
60211;SDS011;46079;48.686;15.598;2023-02-28T01:35:57;6.60;;;1.90;;
60211;SDS011;46079;48.686;15.598;2023-02-28T01:38:27;7.38;;;2.20;;
60211;SDS011;46079;48.686;15.598;2023-02-28T01:40:53;7.30;;;2.08;;
60211;SDS011;46079;48.686;15.598;2023-02-28T01:43:20;6.75;;;2.05;;
60211;SDS011;46079;48.686;15.598;2023-02-28T01:45:54;7.63;;;2.40;;
60211;SDS011;46079;48.686;15.598;2023-02-28T01:48:21;7.63;;;2.28;;
60211;SDS011;46079;48.686;15.598;2023-02-28T01:50:55;7.07;;;2.10;;
60211;SDS011;46079;48.686;15.598;2023-02-28T01:53:29;6.68;;;2.03;;
60211;SDS011;46079;48.686;15.598;2023-02-28T01:55:57;7.18;;;2.30;;
60211;SDS011;46079;48.686;15.598;2023-02-28T01:58:23;6.55;;;2.03;;
60211;SDS011;46079;48.686;15.598;2023-02-28T02:00:49;6.57;;;2.10;;
60211;SDS011;46079;48.686;15.598;2023-02-28T02:03:14;7.45;;;2.30;;
60211;SDS011;46079;48.686;15.598;2023-02-28T02:05:46;6.97;;;2.00;;
60211;SDS011;46079;48.686;15.598;2023-02-28T02:08:23;9.15;;;2.10;;
60211;SDS011;46079;48.686;15.598;2023-02-28T02:10:53;7.40;;;2.20;;
60211;SDS011;46079;48.686;15.598;2023-02-28T02:13:25;7.18;;;2.05;;
60211;SDS011;46079;48.686;15.598;2023-02-28T02:26:58;7.10;;;2.17;;
60211;SDS011;46079;48.686;15.598;2023-02-28T02:37:40;7.05;;;2.30;;
60211;SDS011;46079;48.686;15.598;2023-02-28T02:40:14;7.32;;;2.15;;
60211;SDS011;46079;48.686;15.598;2023-02-28T02:45:21;6.45;;;2.00;;
60211;SDS011;46079;48.686;15.598;2023-02-28T02:47:50;7.80;;;2.22;;
60211;SDS011;46079;48.686;15.598;2023-02-28T02:50:22;7.18;;;2.22;;
60211;SDS011;46079;48.686;15.598;2023-02-28T02:52:54;6.68;;;2.15;;
60211;SDS011;46079;48.686;15.598;2023-02-28T02:55:24;7.68;;;2.00;;
60211;SDS011;46079;48.686;15.598;2023-02-28T02:57:56;6.55;;;2.10;;
60211;SDS011;46079;48.686;15.598;2023-02-28T03:00:27;7.20;;;2.10;;
60211;SDS011;46079;48.686;15.598;2023-02-28T03:02:58;6.32;;;1.92;;
60211;SDS011;46079;48.686;15.598;2023-02-28T03:05:28;6.60;;;2.13;;
60211;SDS011;46079;48.686;15.598;2023-02-28T03:07:58;8.57;;;2.35;;
60211;SDS011;46079;48.686;15.598;2023-02-28T03:15:33;7.15;;;2.20;;
60211;SDS011;46079;48.686;15.598;2023-02-28T03:18:27;7.35;;;2.20;;
60211;SDS011;46079;48.686;15.598;2023-02-28T03:21:43;6.97;;;2.10;;
60211;SDS011;46079;48.686;15.598;2023-02-28T03:24:11;6.97;;;2.30;;
60211;SDS011;46079;48.686;15.598;2023-02-28T03:26:45;7.43;;;2.10;;
60211;SDS011;46079;48.686;15.598;2023-02-28T03:31:50;6.78;;;2.20;;
60211;SDS011;46079;48.686;15.598;2023-02-28T03:36:59;6.78;;;2.10;;
60211;SDS011;46079;48.686;15.598;2023-02-28T03:39:37;7.63;;;2.20;;
60211;SDS011;46079;48.686;15.598;2023-02-28T03:42:09;6.88;;;2.10;;
60211;SDS011;46079;48.686;15.598;2023-02-28T03:47:09;7.35;;;2.10;;
60211;SDS011;46079;48.686;15.598;2023-02-28T03:49:56;6.85;;;2.15;;
60211;SDS011;46079;48.686;15.598;2023-02-28T03:52:29;6.60;;;2.10;;
60211;SDS011;46079;48.686;15.598;2023-02-28T03:55:00;7.22;;;2.33;;
60211;SDS011;46079;48.686;15.598;2023-02-28T04:00:31;7.22;;;2.33;;
60211;SDS011;46079;48.686;15.598;2023-02-28T04:03:00;7.30;;;2.40;;
60211;SDS011;46079;48.686;15.598;2023-02-28T04:05:27;8.00;;;2.50;;
60211;SDS011;46079;48.686;15.598;2023-02-28T04:07:53;6.47;;;2.20;;
60211;SDS011;46079;48.686;15.598;2023-02-28T04:10:19;7.07;;;2.15;;
60211;SDS011;46079;48.686;15.598;2023-02-28T04:12:47;7.40;;;2.20;;
60211;SDS011;46079;48.686;15.598;2023-02-28T04:15:14;6.85;;;2.15;;
60211;SDS011;46079;48.686;15.598;2023-02-28T04:17:40;7.13;;;2.35;;
60211;SDS011;46079;48.686;15.598;2023-02-28T04:20:05;7.28;;;2.22;;
60211;SDS011;46079;48.686;15.598;2023-02-28T04:22:34;7.88;;;2.30;;
60211;SDS011;46079;48.686;15.598;2023-02-28T04:25:01;6.97;;;2.17;;
60211;SDS011;46079;48.686;15.598;2023-02-28T04:27:26;7.40;;;2.40;;
60211;SDS011;46079;48.686;15.598;2023-02-28T04:29:51;6.55;;;2.22;;
60211;SDS011;46079;48.686;15.598;2023-02-28T04:32:17;7.28;;;2.30;;
60211;SDS011;46079;48.686;15.598;2023-02-28T04:34:42;7.10;;;2.30;;
60211;SDS011;46079;48.686;15.598;2023-02-28T04:37:08;6.72;;;2.20;;
60211;SDS011;46079;48.686;15.598;2023-02-28T04:39:35;7.97;;;2.25;;
60211;SDS011;46079;48.686;15.598;2023-02-28T04:42:01;6.57;;;2.20;;
60211;SDS011;46079;48.686;15.598;2023-02-28T04:44:27;7.30;;;2.42;;
60211;SDS011;46079;48.686;15.598;2023-02-28T04:46:52;7.55;;;2.13;;
60211;SDS011;46079;48.686;15.598;2023-02-28T04:49:18;7.88;;;2.50;;
60211;SDS011;46079;48.686;15.598;2023-02-28T04:51:43;6.97;;;2.42;;
60211;SDS011;46079;48.686;15.598;2023-02-28T04:54:09;7.32;;;2.30;;
60211;SDS011;46079;48.686;15.598;2023-02-28T04:56:35;7.38;;;2.33;;
60211;SDS011;46079;48.686;15.598;2023-02-28T04:59:00;7.90;;;2.35;;
60211;SDS011;46079;48.686;15.598;2023-02-28T05:01:30;7.07;;;2.42;;
60211;SDS011;46079;48.686;15.598;2023-02-28T05:06:24;7.00;;;2.20;;
60211;SDS011;46079;48.686;15.598;2023-02-28T05:08:51;6.32;;;1.98;;
60211;SDS011;46079;48.686;15.598;2023-02-28T05:11:25;7.22;;;2.35;;
60211;SDS011;46079;48.686;15.598;2023-02-28T05:13:54;6.80;;;2.20;;
60211;SDS011;46079;48.686;15.598;2023-02-28T05:16:20;7.15;;;2.20;;
60211;SDS011;46079;48.686;15.598;2023-02-28T05:18:46;6.70;;;2.38;;
60211;SDS011;46079;48.686;15.598;2023-02-28T05:21:22;8.48;;;2.25;;
60211;SDS011;46079;48.686;15.598;2023-02-28T05:23:56;8.48;;;2.20;;
60211;SDS011;46079;48.686;15.598;2023-02-28T05:26:25;7.60;;;2.40;;
60211;SDS011;46079;48.686;15.598;2023-02-28T05:28:51;8.23;;;2.33;;
60211;SDS011;46079;48.686;15.598;2023-02-28T05:31:17;7.35;;;2.30;;
60211;SDS011;46079;48.686;15.598;2023-02-28T05:33:42;8.80;;;2.70;;
60211;SDS011;46079;48.686;15.598;2023-02-28T05:36:08;7.53;;;2.20;;
60211;SDS011;46079;48.686;15.598;2023-02-28T05:38:34;7.07;;;2.30;;
60211;SDS011;46079;48.686;15.598;2023-02-28T05:40:59;8.00;;;2.47;;
60211;SDS011;46079;48.686;15.598;2023-02-28T05:43:25;13.80;;;2.90;;
60211;SDS011;46079;48.686;15.598;2023-02-28T05:45:50;9.02;;;2.80;;
60211;SDS011;46079;48.686;15.598;2023-02-28T05:48:16;7.63;;;2.72;;
60211;SDS011;46079;48.686;15.598;2023-02-28T05:50:43;7.00;;;2.30;;
60211;SDS011;46079;48.686;15.598;2023-02-28T05:53:11;8.30;;;2.67;;
60211;SDS011;46079;48.686;15.598;2023-02-28T05:55:37;7.35;;;2.50;;
60211;SDS011;46079;48.686;15.598;2023-02-28T05:58:03;7.88;;;2.50;;
60211;SDS011;46079;48.686;15.598;2023-02-28T06:00:29;6.97;;;2.50;;
60211;SDS011;46079;48.686;15.598;2023-02-28T06:02:54;7.03;;;2.42;;
60211;SDS011;46079;48.686;15.598;2023-02-28T06:05:23;7.65;;;2.58;;
60211;SDS011;46079;48.686;15.598;2023-02-28T06:07:49;7.88;;;2.92;;
60211;SDS011;46079;48.686;15.598;2023-02-28T06:10:15;8.20;;;2.63;;
60211;SDS011;46079;48.686;15.598;2023-02-28T06:12:41;7.50;;;2.78;;
60211;SDS011;46079;48.686;15.598;2023-02-28T06:15:11;7.55;;;2.90;;
60211;SDS011;46079;48.686;15.598;2023-02-28T06:17:41;7.50;;;2.42;;
60211;SDS011;46079;48.686;15.598;2023-02-28T06:20:08;8.63;;;2.90;;
60211;SDS011;46079;48.686;15.598;2023-02-28T06:22:35;8.30;;;2.70;;
60211;SDS011;46079;48.686;15.598;2023-02-28T06:25:02;8.55;;;2.70;;
60211;SDS011;46079;48.686;15.598;2023-02-28T06:27:30;8.52;;;2.88;;
60211;SDS011;46079;48.686;15.598;2023-02-28T06:29:55;8.68;;;3.40;;
60211;SDS011;46079;48.686;15.598;2023-02-28T06:32:21;8.70;;;2.95;;
60211;SDS011;46079;48.686;15.598;2023-02-28T06:34:47;11.90;;;3.03;;
60211;SDS011;46079;48.686;15.598;2023-02-28T06:37:13;8.38;;;3.30;;
60211;SDS011;46079;48.686;15.598;2023-02-28T06:39:38;10.13;;;3.38;;
60211;SDS011;46079;48.686;15.598;2023-02-28T06:42:04;8.63;;;2.95;;
60211;SDS011;46079;48.686;15.598;2023-02-28T06:44:30;8.88;;;3.42;;
60211;SDS011;46079;48.686;15.598;2023-02-28T06:47:00;8.75;;;3.00;;
60211;SDS011;46079;48.686;15.598;2023-02-28T06:49:30;8.50;;;3.05;;
60211;SDS011;46079;48.686;15.598;2023-02-28T06:51:57;8.27;;;3.00;;
60211;SDS011;46079;48.686;15.598;2023-02-28T06:54:23;8.65;;;3.25;;
60211;SDS011;46079;48.686;15.598;2023-02-28T06:56:49;9.32;;;3.20;;
60211;SDS011;46079;48.686;15.598;2023-02-28T06:59:17;9.05;;;3.17;;
60211;SDS011;46079;48.686;15.598;2023-02-28T07:01:43;9.00;;;2.92;;
60211;SDS011;46079;48.686;15.598;2023-02-28T07:04:08;10.18;;;2.90;;
60211;SDS011;46079;48.686;15.598;2023-02-28T07:06:34;9.07;;;3.40;;
60211;SDS011;46079;48.686;15.598;2023-02-28T07:08:59;8.05;;;2.97;;
60211;SDS011;46079;48.686;15.598;2023-02-28T07:11:25;10.13;;;3.20;;
60211;SDS011;46079;48.686;15.598;2023-02-28T07:13:53;8.65;;;3.47;;
60211;SDS011;46079;48.686;15.598;2023-02-28T07:16:20;9.10;;;3.30;;
60211;SDS011;46079;48.686;15.598;2023-02-28T07:18:46;8.32;;;3.08;;
60211;SDS011;46079;48.686;15.598;2023-02-28T07:21:12;8.25;;;2.85;;
60211;SDS011;46079;48.686;15.598;2023-02-28T07:23:38;8.40;;;3.50;;
60211;SDS011;46079;48.686;15.598;2023-02-28T07:26:07;9.70;;;3.25;;
60211;SDS011;46079;48.686;15.598;2023-02-28T07:28:40;8.85;;;3.30;;
60211;SDS011;46079;48.686;15.598;2023-02-28T07:31:07;10.05;;;3.30;;
60211;SDS011;46079;48.686;15.598;2023-02-28T07:33:33;9.82;;;3.35;;
60211;SDS011;46079;48.686;15.598;2023-02-28T07:36:06;8.48;;;3.25;;
60211;SDS011;46079;48.686;15.598;2023-02-28T07:38:37;9.60;;;3.20;;
60211;SDS011;46079;48.686;15.598;2023-02-28T07:41:03;9.27;;;3.03;;
60211;SDS011;46079;48.686;15.598;2023-02-28T07:43:33;9.18;;;3.38;;
60211;SDS011;46079;48.686;15.598;2023-02-28T07:46:06;9.13;;;3.17;;
60211;SDS011;46079;48.686;15.598;2023-02-28T07:48:33;8.20;;;3.15;;
60211;SDS011;46079;48.686;15.598;2023-02-28T07:50:59;8.80;;;3.20;;
60211;SDS011;46079;48.686;15.598;2023-02-28T07:53:25;8.57;;;3.10;;
60211;SDS011;46079;48.686;15.598;2023-02-28T07:55:54;8.93;;;3.30;;
60211;SDS011;46079;48.686;15.598;2023-02-28T07:58:20;8.00;;;3.10;;
60211;SDS011;46079;48.686;15.598;2023-02-28T08:00:46;8.25;;;3.05;;
60211;SDS011;46079;48.686;15.598;2023-02-28T08:03:12;10.25;;;3.15;;
60211;SDS011;46079;48.686;15.598;2023-02-28T08:05:41;9.38;;;3.17;;
60211;SDS011;46079;48.686;15.598;2023-02-28T08:08:06;10.50;;;3.20;;
60211;SDS011;46079;48.686;15.598;2023-02-28T08:10:32;8.90;;;3.40;;
60211;SDS011;46079;48.686;15.598;2023-02-28T08:12:58;8.13;;;3.10;;
60211;SDS011;46079;48.686;15.598;2023-02-28T08:15:26;9.57;;;3.38;;
60211;SDS011;46079;48.686;15.598;2023-02-28T08:17:52;8.70;;;3.38;;
60211;SDS011;46079;48.686;15.598;2023-02-28T08:20:18;8.38;;;3.10;;
60211;SDS011;46079;48.686;15.598;2023-02-28T08:22:43;8.63;;;3.20;;
60211;SDS011;46079;48.686;15.598;2023-02-28T08:25:09;8.57;;;3.40;;
60211;SDS011;46079;48.686;15.598;2023-02-28T08:27:35;8.30;;;3.05;;
60211;SDS011;46079;48.686;15.598;2023-02-28T08:30:02;9.25;;;3.60;;
60211;SDS011;46079;48.686;15.598;2023-02-28T08:32:28;8.45;;;3.20;;
60211;SDS011;46079;48.686;15.598;2023-02-28T08:34:53;8.82;;;3.20;;
60211;SDS011;46079;48.686;15.598;2023-02-28T08:37:19;8.40;;;3.28;;
60211;SDS011;46079;48.686;15.598;2023-02-28T08:39:45;8.65;;;3.55;;
60211;SDS011;46079;48.686;15.598;2023-02-28T08:42:10;8.82;;;3.22;;
60211;SDS011;46079;48.686;15.598;2023-02-28T08:44:36;8.90;;;3.40;;
60211;SDS011;46079;48.686;15.598;2023-02-28T08:47:02;8.30;;;3.13;;
60211;SDS011;46079;48.686;15.598;2023-02-28T08:49:27;8.70;;;3.45;;
60211;SDS011;46079;48.686;15.598;2023-02-28T08:51:53;8.23;;;3.10;;
60211;SDS011;46079;48.686;15.598;2023-02-28T08:54:20;8.35;;;3.22;;
60211;SDS011;46079;48.686;15.598;2023-02-28T08:56:46;8.50;;;3.17;;
60211;SDS011;46079;48.686;15.598;2023-02-28T08:59:14;9.27;;;3.42;;
60211;SDS011;46079;48.686;15.598;2023-02-28T09:01:40;8.45;;;3.20;;
60211;SDS011;46079;48.686;15.598;2023-02-28T09:04:06;8.50;;;3.33;;
60211;SDS011;46079;48.686;15.598;2023-02-28T09:06:33;9.07;;;3.38;;
60211;SDS011;46079;48.686;15.598;2023-02-28T09:08:59;8.45;;;3.30;;
60211;SDS011;46079;48.686;15.598;2023-02-28T09:11:26;8.50;;;3.20;;
60211;SDS011;46079;48.686;15.598;2023-02-28T09:13:52;8.68;;;3.00;;
60211;SDS011;46079;48.686;15.598;2023-02-28T09:16:17;8.48;;;3.70;;
60211;SDS011;46079;48.686;15.598;2023-02-28T09:18:43;8.32;;;3.10;;
60211;SDS011;46079;48.686;15.598;2023-02-28T09:21:10;10.38;;;3.20;;
60211;SDS011;46079;48.686;15.598;2023-02-28T09:23:42;8.23;;;2.85;;
60211;SDS011;46079;48.686;15.598;2023-02-28T09:26:16;7.85;;;3.13;;
60211;SDS011;46079;48.686;15.598;2023-02-28T09:28:47;8.23;;;3.20;;
60211;SDS011;46079;48.686;15.598;2023-02-28T09:31:14;9.38;;;3.53;;
60211;SDS011;46079;48.686;15.598;2023-02-28T09:33:41;8.52;;;3.15;;
60211;SDS011;46079;48.686;15.598;2023-02-28T09:36:07;8.82;;;3.50;;
60211;SDS011;46079;48.686;15.598;2023-02-28T09:38:34;8.85;;;3.55;;
60211;SDS011;46079;48.686;15.598;2023-02-28T09:41:02;8.75;;;3.60;;
60211;SDS011;46079;48.686;15.598;2023-02-28T09:43:34;8.38;;;3.40;;
60211;SDS011;46079;48.686;15.598;2023-02-28T09:46:15;10.13;;;3.45;;
60211;SDS011;46079;48.686;15.598;2023-02-28T09:48:45;9.88;;;4.22;;
60211;SDS011;46079;48.686;15.598;2023-02-28T09:51:28;17.98;;;5.20;;
60211;SDS011;46079;48.686;15.598;2023-02-28T09:54:00;23.38;;;6.45;;
60211;SDS011;46079;48.686;15.598;2023-02-28T09:56:39;21.13;;;6.32;;
60211;SDS011;46079;48.686;15.598;2023-02-28T10:01:37;23.25;;;7.10;;
60211;SDS011;46079;48.686;15.598;2023-02-28T10:06:57;19.92;;;6.25;;
60211;SDS011;46079;48.686;15.598;2023-02-28T10:09:26;21.40;;;6.88;;
60211;SDS011;46079;48.686;15.598;2023-02-28T10:11:57;18.90;;;6.40;;
60211;SDS011;46079;48.686;15.598;2023-02-28T10:14:29;23.13;;;7.05;;
60211;SDS011;46079;48.686;15.598;2023-02-28T10:17:02;19.95;;;6.35;;
60211;SDS011;46079;48.686;15.598;2023-02-28T10:22:18;20.15;;;5.82;;
60211;SDS011;46079;48.686;15.598;2023-02-28T10:24:49;20.13;;;6.70;;
60211;SDS011;46079;48.686;15.598;2023-02-28T10:27:25;14.55;;;5.70;;
60211;SDS011;46079;48.686;15.598;2023-02-28T10:29:55;19.40;;;6.72;;
60211;SDS011;46079;48.686;15.598;2023-02-28T10:32:27;18.40;;;6.55;;
60211;SDS011;46079;48.686;15.598;2023-02-28T10:37:24;15.90;;;6.07;;
60211;SDS011;46079;48.686;15.598;2023-02-28T10:39:50;17.05;;;6.00;;
60211;SDS011;46079;48.686;15.598;2023-02-28T10:42:26;16.25;;;5.95;;
60211;SDS011;46079;48.686;15.598;2023-02-28T10:52:52;16.23;;;5.53;;
60211;SDS011;46079;48.686;15.598;2023-02-28T10:55:23;17.38;;;6.00;;
60211;SDS011;46079;48.686;15.598;2023-02-28T10:57:50;17.05;;;5.85;;
60211;SDS011;46079;48.686;15.598;2023-02-28T11:00:21;16.02;;;5.55;;
60211;SDS011;46079;48.686;15.598;2023-02-28T11:02:48;14.88;;;5.68;;
60211;SDS011;46079;48.686;15.598;2023-02-28T11:05:27;17.17;;;5.60;;
60211;SDS011;46079;48.686;15.598;2023-02-28T11:07:59;15.30;;;5.20;;
60211;SDS011;46079;48.686;15.598;2023-02-28T11:10:48;15.10;;;5.10;;
60211;SDS011;46079;48.686;15.598;2023-02-28T11:13:21;16.60;;;5.93;;
60211;SDS011;46079;48.686;15.598;2023-02-28T11:15:59;15.85;;;5.70;;
60211;SDS011;46079;48.686;15.598;2023-02-28T11:21:22;13.93;;;5.43;;
60211;SDS011;46079;48.686;15.598;2023-02-28T11:24:00;15.25;;;5.15;;
60211;SDS011;46079;48.686;15.598;2023-02-28T11:26:36;15.65;;;5.05;;
60211;SDS011;46079;48.686;15.598;2023-02-28T11:29:17;14.97;;;5.50;;
60211;SDS011;46079;48.686;15.598;2023-02-28T11:34:33;16.23;;;5.57;;
60211;SDS011;46079;48.686;15.598;2023-02-28T11:37:00;14.18;;;5.10;;
60211;SDS011;46079;48.686;15.598;2023-02-28T11:39:30;13.02;;;5.32;;
60211;SDS011;46079;48.686;15.598;2023-02-28T11:52:53;13.38;;;4.97;;
60211;SDS011;46079;48.686;15.598;2023-02-28T12:03:27;12.80;;;4.65;;
60211;SDS011;46079;48.686;15.598;2023-02-28T12:08:40;11.60;;;4.43;;
60211;SDS011;46079;48.686;15.598;2023-02-28T12:27:39;12.63;;;4.78;;
60211;SDS011;46079;48.686;15.598;2023-02-28T12:30:19;11.38;;;4.35;;
60211;SDS011;46079;48.686;15.598;2023-02-28T12:33:11;11.73;;;4.25;;
60211;SDS011;46079;48.686;15.598;2023-02-28T12:35:43;12.35;;;4.85;;
60211;SDS011;46079;48.686;15.598;2023-02-28T12:38:16;12.88;;;4.40;;
60211;SDS011;46079;48.686;15.598;2023-02-28T12:43:15;10.77;;;4.60;;
60211;SDS011;46079;48.686;15.598;2023-02-28T12:45:48;12.48;;;4.65;;
60211;SDS011;46079;48.686;15.598;2023-02-28T12:48:19;10.93;;;4.38;;
60211;SDS011;46079;48.686;15.598;2023-02-28T12:50:49;11.15;;;4.57;;
60211;SDS011;46079;48.686;15.598;2023-02-28T12:53:22;13.55;;;4.13;;
60211;SDS011;46079;48.686;15.598;2023-02-28T12:56:00;13.18;;;4.32;;
60211;SDS011;46079;48.686;15.598;2023-02-28T13:09:59;11.10;;;4.10;;
60211;SDS011;46079;48.686;15.598;2023-02-28T13:12:27;11.95;;;4.40;;
60211;SDS011;46079;48.686;15.598;2023-02-28T13:15:16;11.50;;;4.00;;
60211;SDS011;46079;48.686;15.598;2023-02-28T13:17:53;11.68;;;4.40;;
60211;SDS011;46079;48.686;15.598;2023-02-28T13:20:25;10.05;;;3.90;;
60211;SDS011;46079;48.686;15.598;2023-02-28T13:22:54;10.95;;;4.40;;
60211;SDS011;46079;48.686;15.598;2023-02-28T13:28:10;11.57;;;5.28;;
60211;SDS011;46079;48.686;15.598;2023-02-28T13:33:21;13.90;;;5.40;;
60211;SDS011;46079;48.686;15.598;2023-02-28T13:38:33;13.77;;;5.55;;
60211;SDS011;46079;48.686;15.598;2023-02-28T13:49:23;11.73;;;4.88;;
60211;SDS011;46079;48.686;15.598;2023-02-28T14:06:07;12.57;;;5.55;;
60211;SDS011;46079;48.686;15.598;2023-02-28T14:09:02;14.27;;;5.63;;
60211;SDS011;46079;48.686;15.598;2023-02-28T14:11:42;13.10;;;5.57;;
60211;SDS011;46079;48.686;15.598;2023-02-28T14:14:09;13.10;;;5.25;;
60211;SDS011;46079;48.686;15.598;2023-02-28T14:17:00;13.63;;;5.85;;
60211;SDS011;46079;48.686;15.598;2023-02-28T14:19:29;14.00;;;5.40;;
60211;SDS011;46079;48.686;15.598;2023-02-28T14:35:58;12.25;;;5.35;;
60211;SDS011;46079;48.686;15.598;2023-02-28T14:38:40;16.13;;;6.07;;
60211;SDS011;46079;48.686;15.598;2023-02-28T14:43:49;13.48;;;6.10;;
60211;SDS011;46079;48.686;15.598;2023-02-28T14:46:22;17.10;;;6.03;;
60211;SDS011;46079;48.686;15.598;2023-02-28T14:48:51;15.75;;;6.03;;
60211;SDS011;46079;48.686;15.598;2023-02-28T14:51:21;15.57;;;6.57;;
60211;SDS011;46079;48.686;15.598;2023-02-28T14:54:06;17.35;;;6.30;;
60211;SDS011;46079;48.686;15.598;2023-02-28T14:56:35;15.80;;;6.18;;
60211;SDS011;46079;48.686;15.598;2023-02-28T14:59:03;18.30;;;6.15;;
60211;SDS011;46079;48.686;15.598;2023-02-28T15:01:30;16.67;;;6.47;;
60211;SDS011;46079;48.686;15.598;2023-02-28T15:04:05;14.63;;;6.18;;
60211;SDS011;46079;48.686;15.598;2023-02-28T15:06:31;14.98;;;5.95;;
60211;SDS011;46079;48.686;15.598;2023-02-28T15:09:13;18.70;;;6.80;;
60211;SDS011;46079;48.686;15.598;2023-02-28T15:11:40;15.52;;;6.18;;
60211;SDS011;46079;48.686;15.598;2023-02-28T15:14:13;16.17;;;6.03;;
60211;SDS011;46079;48.686;15.598;2023-02-28T15:16:43;15.77;;;5.93;;
60211;SDS011;46079;48.686;15.598;2023-02-28T15:21:39;15.57;;;5.95;;
60211;SDS011;46079;48.686;15.598;2023-02-28T15:26:49;17.20;;;6.55;;
60211;SDS011;46079;48.686;15.598;2023-02-28T15:29:20;16.20;;;5.93;;
60211;SDS011;46079;48.686;15.598;2023-02-28T15:31:49;15.32;;;6.00;;
60211;SDS011;46079;48.686;15.598;2023-02-28T15:34:20;15.93;;;6.53;;
60211;SDS011;46079;48.686;15.598;2023-02-28T15:36:51;16.40;;;5.72;;
60211;SDS011;46079;48.686;15.598;2023-02-28T15:39:21;15.18;;;5.95;;
60211;SDS011;46079;48.686;15.598;2023-02-28T15:42:10;14.60;;;5.30;;
60211;SDS011;46079;48.686;15.598;2023-02-28T15:44:43;14.98;;;5.68;;
60211;SDS011;46079;48.686;15.598;2023-02-28T15:47:15;17.05;;;5.95;;
60211;SDS011;46079;48.686;15.598;2023-02-28T15:49:45;17.30;;;6.00;;
60211;SDS011;46079;48.686;15.598;2023-02-28T15:52:26;15.68;;;5.65;;
60211;SDS011;46079;48.686;15.598;2023-02-28T15:57:38;13.55;;;5.82;;
60211;SDS011;46079;48.686;15.598;2023-02-28T16:00:05;15.00;;;5.75;;
60211;SDS011;46079;48.686;15.598;2023-02-28T16:02:38;14.68;;;5.60;;
60211;SDS011;46079;48.686;15.598;2023-02-28T16:07:36;13.50;;;6.13;;
60211;SDS011;46079;48.686;15.598;2023-02-28T16:10:04;15.95;;;5.55;;
60211;SDS011;46079;48.686;15.598;2023-02-28T16:12:31;15.50;;;5.75;;
60211;SDS011;46079;48.686;15.598;2023-02-28T16:14:59;13.50;;;5.70;;
60211;SDS011;46079;48.686;15.598;2023-02-28T16:17:33;13.73;;;5.50;;
60211;SDS011;46079;48.686;15.598;2023-02-28T16:20:00;12.52;;;5.30;;
60211;SDS011;46079;48.686;15.598;2023-02-28T16:22:30;14.80;;;5.75;;
60211;SDS011;46079;48.686;15.598;2023-02-28T16:24:56;15.63;;;5.68;;
60211;SDS011;46079;48.686;15.598;2023-02-28T16:27:28;14.07;;;5.60;;
60211;SDS011;46079;48.686;15.598;2023-02-28T16:29:56;14.57;;;5.20;;
60211;SDS011;46079;48.686;15.598;2023-02-28T16:32:22;13.70;;;5.50;;
60211;SDS011;46079;48.686;15.598;2023-02-28T16:34:47;13.25;;;5.75;;
60211;SDS011;46079;48.686;15.598;2023-02-28T16:37:14;13.52;;;5.18;;
60211;SDS011;46079;48.686;15.598;2023-02-28T16:39:41;14.73;;;6.43;;
60211;SDS011;46079;48.686;15.598;2023-02-28T16:42:10;12.32;;;5.00;;
60211;SDS011;46079;48.686;15.598;2023-02-28T16:44:40;14.02;;;5.32;;
60211;SDS011;46079;48.686;15.598;2023-02-28T16:47:05;12.73;;;5.28;;
60211;SDS011;46079;48.686;15.598;2023-02-28T16:49:31;14.82;;;5.45;;
60211;SDS011;46079;48.686;15.598;2023-02-28T16:51:57;12.68;;;4.95;;
60211;SDS011;46079;48.686;15.598;2023-02-28T16:54:22;13.05;;;5.47;;
60211;SDS011;46079;48.686;15.598;2023-02-28T16:56:48;12.35;;;5.00;;
60211;SDS011;46079;48.686;15.598;2023-02-28T16:59:15;12.95;;;5.35;;
60211;SDS011;46079;48.686;15.598;2023-02-28T17:01:46;13.65;;;5.22;;
60211;SDS011;46079;48.686;15.598;2023-02-28T17:04:11;14.20;;;5.13;;
60211;SDS011;46079;48.686;15.598;2023-02-28T17:06:37;15.85;;;5.72;;
60211;SDS011;46079;48.686;15.598;2023-02-28T17:09:03;13.88;;;5.43;;
60211;SDS011;46079;48.686;15.598;2023-02-28T17:11:28;13.07;;;5.18;;
60211;SDS011;46079;48.686;15.598;2023-02-28T17:13:54;13.40;;;5.32;;
60211;SDS011;46079;48.686;15.598;2023-02-28T17:16:37;12.75;;;5.10;;
60211;SDS011;46079;48.686;15.598;2023-02-28T17:19:11;14.45;;;5.40;;
60211;SDS011;46079;48.686;15.598;2023-02-28T17:21:39;12.70;;;4.82;;
60211;SDS011;46079;48.686;15.598;2023-02-28T17:24:07;11.68;;;5.18;;
60211;SDS011;46079;48.686;15.598;2023-02-28T17:26:33;12.48;;;5.40;;
60211;SDS011;46079;48.686;15.598;2023-02-28T17:28:58;12.18;;;4.95;;
60211;SDS011;46079;48.686;15.598;2023-02-28T17:31:24;12.65;;;5.30;;
60211;SDS011;46079;48.686;15.598;2023-02-28T17:33:51;12.27;;;5.30;;